McNary, Oregon
Current Conditions -  °F | °C
As of 9:53 PM on Thursday 30 Oct 2014 (Local Time) from KHRI Reporting Station
Few Clouds Few Clouds  
Wind Chill: 52°   Ceiling: Unl
Heat Index: 52°   Visibility: 10mi
Dew Point: 49°   Wind: 3mph
Humidity: 89%   Direction: 270°W
Pressure: 29.81"   Gusts: NA
Location:  45.9093°N, 119.286°W
Report Text: KHRI 310453Z AUTO 27003KT 10SM FEW017 FEW110 11/09 A2981 RMK AO2 SLP095 T01110094
Loading
Personal Weather Stations






























Interactive Weather Map
Tropical Storm Tracking
New forecast layout! Learn more

10-Day Weather Forecast

Advertisements
Track Severe Weather on mobile